MSC Sinfonia — H8XH — position and weather

sailwx.info

Track history (hours):
 
Tides and Currents Weather Stations Pressure Air Temp Water Temp Dewpoint Dewpoint Depression Visibility Wind Speed Wind Dir Waves Ship Positions

MSC Sinfonia

Last reported at 2014-Sep-22 17:16 UTC. Time now 2014-Sep-22 20:13 UTC.
Position N 43°44' E 008°03'.

Length 251 m; draft 6.8 m.

Type: Passenger vessel. MMSI: 356715971.

Date/timePositionNaut miles runAvg speedWind from/ knotsBaromVisibWave heightAir tempDewpointWater temp
2014-Sep-22 17:16N 43°44' E 008°03'1419.3
2014-Sep-22 16:33N 43°53' E 008°17'1919.1
2014-Sep-22 15:33N 44°06' E 008°37'1919.2
2014-Sep-22 14:33N 44°18' E 008°57'6 5.7
2014-Sep-22 13:25N 44°25' E 008°55'0 0.0
2014-Sep-22 12:31N 44°25' E 008°55'0 0.0
2014-Sep-22 11:31N 44°25' E 008°55'0 0.0
2014-Sep-22 10:13N 44°25' E 008°55'0 0.0
2014-Sep-22 09:13N 44°25' E 008°55'0 0.0
2014-Sep-22 08:13N 44°25' E 008°55'0 0.0
2014-Sep-22 07:31N 44°25' E 008°55'2 2.1
2014-Sep-22 06:34N 44°23' E 008°57'1413.6
2014-Sep-22 05:33N 44°11' E 009°06'2020.0
2014-Sep-22 04:33N 43°53' E 009°19'2019.6
2014-Sep-22 03:33N 43°36' E 009°31'2019.5
2014-Sep-22 02:33N 43°20' E 009°46'2018.9
2014-Sep-22 01:31N 43°03' E 009°59'23219.2
2014-Sep-21 13:27N 40°34' E 013°58'202 8.5
2014-Sep-20 13:33N 40°55' E 009°32'1 0.9
2014-Sep-20 12:33N 40°55' E 009°31'0 0.0
2014-Sep-20 11:32N 40°55' E 009°31'0 0.0
2014-Sep-20 09:11N 40°55' E 009°31'0 0.0
2014-Sep-20 08:32N 40°55' E 009°31'0 0.0
2014-Sep-20 07:29N 40°55' E 009°31'0 0.1
2014-Sep-20 05:30N 40°55' E 009°32'5 5.5
2014-Sep-20 04:33N 40°57' E 009°38'13214.2
2014-Sep-19 19:18N 40°41' E 006°46'2019.3
2014-Sep-19 18:16N 40°33' E 006°22'5217.0
2014-Sep-19 15:14N 40°12' E 005°20'2319.8
2014-Sep-19 14:05N 40°03' E 004°52'1421.2
2014-Sep-19 13:25N 39°57' E 004°35'84 5.6
2014-Sep-18 22:23N 39°01' E 003°16'2111.1
2014-Sep-18 20:32N 38°54' E 002°51'2812.1
2014-Sep-18 18:16N 38°54' E 002°15'911.8
2014-Sep-18 17:28N 38°54' E 002°03'1111.9
2014-Sep-18 16:33N 38°54' E 001°49'69 2.2
2014-Sep-17 09:24N 39°55' E 002°29'1214.2
2014-Sep-17 08:33N 40°04' E 002°40'3414.9
2014-Sep-17 06:17N 40°28' E 003°12'18214.2
2014-Sep-16 17:30N 42°37' E 006°03'1818.7
2014-Sep-16 16:33N 42°50' E 006°21'1918.8
2014-Sep-16 15:33N 43°04' E 006°38'1919.1
2014-Sep-16 14:34N 43°19' E 006°52'1411.1
2014-Sep-16 13:16N 43°32' E 007°01'0 0.0
2014-Sep-16 12:28N 43°32' E 007°01'0 0.0
2014-Sep-16 11:28N 43°32' E 007°01'0 0.0
2014-Sep-16 10:28N 43°32' E 007°01'0 0.0
2014-Sep-16 09:28N 43°32' E 007°01'0 0.0
2014-Sep-16 08:28N 43°32' E 007°01'0 0.0
2014-Sep-16 07:28N 43°32' E 007°01'0 0.0
2014-Sep-16 06:28N 43°32' E 007°01'0 0.0
2014-Sep-16 05:33N 43°32' E 007°01'1 1.3
2014-Sep-16 04:34N 43°31' E 007°01'8 7.6
2014-Sep-16 03:33N 43°29' E 007°11'1010.0
2014-Sep-16 02:32N 43°31' E 007°25'6310.1
2014-Sep-15 20:22N 43°52' E 008°46'911.1
2014-Sep-15 19:33N 43°43' E 008°45'2020.2
2014-Sep-15 18:33N 44°02' E 008°55'1817.9
2014-Sep-15 17:33N 44°20' E 008°58'5 3.9
2014-Sep-15 16:20N 44°25' E 008°55'0 0.0
2014-Sep-15 15:29N 44°25' E 008°55'0 0.0
2014-Sep-15 14:32N 44°25' E 008°55'0 0.0
2014-Sep-15 13:32N 44°25' E 008°55'0 0.0
2014-Sep-15 12:26N 44°25' E 008°55'0 0.0
2014-Sep-15 11:32N 44°25' E 008°55'0 0.0
2014-Sep-15 10:29N 44°25' E 008°55'0 0.0
2014-Sep-15 09:29N 44°25' E 008°55'0 0.0
2014-Sep-15 08:32N 44°25' E 008°55'0 0.0
2014-Sep-15 07:33N 44°25' E 008°55'0 0.3
2014-Sep-15 06:33N 44°24' E 008°55'1111.1
2014-Sep-15 05:33N 44°15' E 009°03'2020.3
2014-Sep-15 04:33N 43°57' E 009°16'2020.4
2014-Sep-15 03:33N 43°39' E 009°29'2019.8
2014-Sep-15 02:34N 43°22' E 009°43'2019.8
2014-Sep-15 01:33N 43°06' E 009°59'21219.2
2014-Sep-14 14:32N 40°41' E 013°28'1920.0
2014-Sep-14 13:33N 40°35' E 013°52'2020.2
2014-Sep-14 12:33N 40°31' E 014°18'3 0.3
2014-Sep-14 02:17N 40°31' E 014°13'1013.7
2014-Sep-14 01:34N 40°32' E 014°01'20514.6
2014-Sep-13 11:32N 40°55' E 009°31'0 0.0
2014-Sep-13 10:32N 40°55' E 009°31'0 0.0
2014-Sep-13 07:23N 40°55' E 009°31'0 0.0
2014-Sep-13 06:32N 40°55' E 009°31'  
Track history (hours):
 
Tides and Currents Weather Stations Pressure Air Temp Water Temp Dewpoint Dewpoint Depression Visibility Wind Speed Wind Dir Waves Ship Positions

MSC Sinfonia

Last reported at 2014-Sep-22 17:16 UTC. Time now 2014-Sep-22 20:13 UTC.
Position N 43°44' E 008°03'.

Length 251 m; draft 6.8 m.

Type: Passenger vessel. MMSI: 356715971.

Date/timePositionNaut miles runAvg speedWind from/ knotsBaromVisibWave heightAir tempDewpointWater temp
2014-Sep-22 17:16N 43°44' E 008°03'1419.3
2014-Sep-22 16:33N 43°53' E 008°17'1919.1
2014-Sep-22 15:33N 44°06' E 008°37'1919.2
2014-Sep-22 14:33N 44°18' E 008°57'6 5.7
2014-Sep-22 13:25N 44°25' E 008°55'0 0.0
2014-Sep-22 12:31N 44°25' E 008°55'0 0.0
2014-Sep-22 11:31N 44°25' E 008°55'0 0.0
2014-Sep-22 10:13N 44°25' E 008°55'0 0.0
2014-Sep-22 09:13N 44°25' E 008°55'0 0.0
2014-Sep-22 08:13N 44°25' E 008°55'0 0.0
2014-Sep-22 07:31N 44°25' E 008°55'2 2.1
2014-Sep-22 06:34N 44°23' E 008°57'1413.6
2014-Sep-22 05:33N 44°11' E 009°06'2020.0
2014-Sep-22 04:33N 43°53' E 009°19'2019.6
2014-Sep-22 03:33N 43°36' E 009°31'2019.5
2014-Sep-22 02:33N 43°20' E 009°46'2018.9
2014-Sep-22 01:31N 43°03' E 009°59'23219.2
2014-Sep-21 13:27N 40°34' E 013°58'202 8.5
2014-Sep-20 13:33N 40°55' E 009°32'1 0.9
2014-Sep-20 12:33N 40°55' E 009°31'0 0.0
2014-Sep-20 11:32N 40°55' E 009°31'0 0.0
2014-Sep-20 09:11N 40°55' E 009°31'0 0.0
2014-Sep-20 08:32N 40°55' E 009°31'0 0.0
2014-Sep-20 07:29N 40°55' E 009°31'0 0.1
2014-Sep-20 05:30N 40°55' E 009°32'5 5.5
2014-Sep-20 04:33N 40°57' E 009°38'13214.2
2014-Sep-19 19:18N 40°41' E 006°46'2019.3
2014-Sep-19 18:16N 40°33' E 006°22'5217.0
2014-Sep-19 15:14N 40°12' E 005°20'2319.8
2014-Sep-19 14:05N 40°03' E 004°52'1421.2
2014-Sep-19 13:25N 39°57' E 004°35'84 5.6
2014-Sep-18 22:23N 39°01' E 003°16'2111.1
2014-Sep-18 20:32N 38°54' E 002°51'2812.1
2014-Sep-18 18:16N 38°54' E 002°15'911.8
2014-Sep-18 17:28N 38°54' E 002°03'1111.9
2014-Sep-18 16:33N 38°54' E 001°49'69 2.2
2014-Sep-17 09:24N 39°55' E 002°29'1214.2
2014-Sep-17 08:33N 40°04' E 002°40'3414.9
2014-Sep-17 06:17N 40°28' E 003°12'18214.2
2014-Sep-16 17:30N 42°37' E 006°03'1818.7
2014-Sep-16 16:33N 42°50' E 006°21'1918.8
2014-Sep-16 15:33N 43°04' E 006°38'1919.1
2014-Sep-16 14:34N 43°19' E 006°52'1411.1
2014-Sep-16 13:16N 43°32' E 007°01'0 0.0
2014-Sep-16 12:28N 43°32' E 007°01'0 0.0
2014-Sep-16 11:28N 43°32' E 007°01'0 0.0
2014-Sep-16 10:28N 43°32' E 007°01'0 0.0
2014-Sep-16 09:28N 43°32' E 007°01'0 0.0
2014-Sep-16 08:28N 43°32' E 007°01'0 0.0
2014-Sep-16 07:28N 43°32' E 007°01'0 0.0
2014-Sep-16 06:28N 43°32' E 007°01'0 0.0
2014-Sep-16 05:33N 43°32' E 007°01'1 1.3
2014-Sep-16 04:34N 43°31' E 007°01'8 7.6
2014-Sep-16 03:33N 43°29' E 007°11'1010.0
2014-Sep-16 02:32N 43°31' E 007°25'6310.1
2014-Sep-15 20:22N 43°52' E 008°46'911.1
2014-Sep-15 19:33N 43°43' E 008°45'2020.2
2014-Sep-15 18:33N 44°02' E 008°55'1817.9
2014-Sep-15 17:33N 44°20' E 008°58'5 3.9
2014-Sep-15 16:20N 44°25' E 008°55'0 0.0
2014-Sep-15 15:29N 44°25' E 008°55'0 0.0
2014-Sep-15 14:32N 44°25' E 008°55'0 0.0
2014-Sep-15 13:32N 44°25' E 008°55'0 0.0
2014-Sep-15 12:26N 44°25' E 008°55'0 0.0
2014-Sep-15 11:32N 44°25' E 008°55'0 0.0
2014-Sep-15 10:29N 44°25' E 008°55'0 0.0
2014-Sep-15 09:29N 44°25' E 008°55'0 0.0
2014-Sep-15 08:32N 44°25' E 008°55'0 0.0
2014-Sep-15 07:33N 44°25' E 008°55'0 0.3
2014-Sep-15 06:33N 44°24' E 008°55'1111.1
2014-Sep-15 05:33N 44°15' E 009°03'2020.3
2014-Sep-15 04:33N 43°57' E 009°16'2020.4
2014-Sep-15 03:33N 43°39' E 009°29'2019.8
2014-Sep-15 02:34N 43°22' E 009°43'2019.8
2014-Sep-15 01:33N 43°06' E 009°59'21219.2
2014-Sep-14 14:32N 40°41' E 013°28'1920.0
2014-Sep-14 13:33N 40°35' E 013°52'2020.2
2014-Sep-14 12:33N 40°31' E 014°18'3 0.3
2014-Sep-14 02:17N 40°31' E 014°13'1013.7
2014-Sep-14 01:34N 40°32' E 014°01'20514.6
2014-Sep-13 11:32N 40°55' E 009°31'0 0.0
2014-Sep-13 10:32N 40°55' E 009°31'0 0.0
2014-Sep-13 07:23N 40°55' E 009°31'0 0.0
2014-Sep-13 06:32N 40°55' E 009°31'  

Dump ship's entire track history